createdAt,value
2019-03-13T00:01:42.810Z,4.71
2019-03-13T00:04:18.672Z,4.75
2019-03-13T00:06:53.520Z,4.81
2019-03-13T00:09:28.455Z,4.84
2019-03-13T00:12:03.390Z,4.83
2019-03-13T00:14:40.718Z,4.87
2019-03-13T00:17:18.091Z,4.95
2019-03-13T00:19:55.452Z,4.99
2019-03-13T00:22:31.271Z,4.98
2019-03-13T00:25:07.217Z,5.05
2019-03-13T00:27:42.936Z,5.07
2019-03-13T00:30:18.216Z,5.07
2019-03-13T00:32:53.157Z,5.10
2019-03-13T00:35:28.094Z,5.19
2019-03-13T00:38:03.004Z,5.23
2019-03-13T00:40:37.880Z,5.20
2019-03-13T00:43:12.725Z,5.15
2019-03-13T00:45:47.600Z,5.20
2019-03-13T00:48:22.449Z,5.23
2019-03-13T00:50:57.344Z,5.17
2019-03-13T00:53:32.263Z,5.07
2019-03-13T00:56:07.388Z,5.07
2019-03-13T00:58:42.237Z,5.14
2019-03-13T01:01:42.098Z,5.24
2019-03-13T01:04:29.803Z,5.16
2019-03-13T01:07:08.267Z,5.12
2019-03-13T01:09:43.279Z,5.08
2019-03-13T01:12:18.555Z,5.07
2019-03-13T01:14:54.721Z,5.17
2019-03-13T01:17:29.492Z,5.24
2019-03-13T01:20:04.442Z,5.27
2019-03-13T01:22:39.330Z,5.25
2019-03-13T01:25:14.194Z,5.30
2019-03-13T01:27:48.958Z,5.26
2019-03-13T01:30:24.710Z,5.21
2019-03-13T01:33:04.664Z,5.23
2019-03-13T01:35:50.861Z,5.17
2019-03-13T01:39:00.807Z,5.23
2019-03-13T01:41:37.486Z,5.16
2019-03-13T01:44:12.340Z,5.11
2019-03-13T01:46:47.230Z,5.21
2019-03-13T01:49:34.283Z,5.28
2019-03-13T01:52:09.224Z,5.31
2019-03-13T01:54:44.121Z,5.38
2019-03-13T01:57:19.161Z,5.44
2019-03-13T01:59:54.085Z,5.41
2019-03-13T02:02:29.110Z,5.40
2019-03-13T02:05:05.196Z,5.41
2019-03-13T02:07:40.129Z,5.41
2019-03-13T02:10:16.393Z,5.41
2019-03-13T02:12:51.750Z,5.41
2019-03-13T02:15:26.724Z,5.41
2019-03-13T02:18:03.322Z,5.42
2019-03-13T02:20:38.242Z,5.44
2019-03-13T02:23:14.708Z,5.56
2019-03-13T02:25:49.646Z,5.63
2019-03-13T02:28:24.514Z,5.69
2019-03-13T02:31:00.662Z,5.74
2019-03-13T02:33:36.442Z,5.71
2019-03-13T02:36:12.293Z,5.71
2019-03-13T02:38:48.117Z,5.71
2019-03-13T02:41:24.459Z,5.74
2019-03-13T02:43:59.345Z,5.78
2019-03-13T02:46:35.429Z,5.83
2019-03-13T02:49:10.304Z,5.86
2019-03-13T02:51:45.080Z,5.80
2019-03-13T02:54:26.636Z,5.87
2019-03-13T02:57:03.247Z,5.89
2019-03-13T02:59:38.161Z,5.89
2019-03-13T03:02:31.957Z,5.86
2019-03-13T03:05:07.526Z,5.87
2019-03-13T03:07:43.397Z,5.86
2019-03-13T03:10:18.506Z,5.85
2019-03-13T03:12:53.545Z,5.82
2019-03-13T03:15:28.432Z,5.86
2019-03-13T03:18:03.323Z,5.92
2019-03-13T03:20:38.160Z,5.94
2019-03-13T03:23:13.072Z,5.92
2019-03-13T03:25:47.990Z,5.98
2019-03-13T03:28:25.845Z,5.98
2019-03-13T03:31:02.069Z,6.04
2019-03-13T03:33:37.004Z,5.97
2019-03-13T03:36:12.648Z,5.98
2019-03-13T03:38:47.556Z,6.00
2019-03-13T03:41:22.509Z,6.00
2019-03-13T03:43:57.413Z,6.07
2019-03-13T03:46:32.296Z,6.06
2019-03-13T03:49:10.303Z,6.06
2019-03-13T03:51:45.345Z,6.08
2019-03-13T03:54:20.247Z,6.06
2019-03-13T03:56:55.159Z,6.10
2019-03-13T03:59:30.092Z,6.09
2019-03-13T04:02:04.859Z,6.07
2019-03-13T04:04:42.646Z,6.06
2019-03-13T04:07:17.651Z,6.08
2019-03-13T04:09:52.521Z,6.08
2019-03-13T04:12:27.386Z,6.08
2019-03-13T04:15:03.623Z,6.08
2019-03-13T04:17:38.676Z,6.04
2019-03-13T04:20:14.017Z,6.08
2019-03-13T04:22:48.775Z,6.08
2019-03-13T04:25:39.071Z,6.09
2019-03-13T04:28:16.412Z,6.09
2019-03-13T04:30:56.246Z,6.08
2019-03-13T04:33:32.142Z,6.08
2019-03-13T04:36:07.615Z,6.06
2019-03-13T04:38:43.333Z,6.09
2019-03-13T04:41:18.202Z,6.10
2019-03-13T04:43:53.230Z,6.10
2019-03-13T04:46:28.084Z,6.04
2019-03-13T04:49:02.964Z,6.07
2019-03-13T04:51:37.721Z,6.04
2019-03-13T04:54:12.595Z,6.03
2019-03-13T04:56:47.503Z,6.02
2019-03-13T04:59:22.453Z,6.07
2019-03-13T05:01:57.360Z,6.08
2019-03-13T05:04:32.254Z,6.12
2019-03-13T05:07:07.101Z,6.13
2019-03-13T05:09:42.520Z,6.15
2019-03-13T05:12:17.375Z,6.16
2019-03-13T05:14:52.275Z,6.15
2019-03-13T05:17:27.171Z,6.17
2019-03-13T05:20:03.421Z,6.18
2019-03-13T05:22:38.336Z,6.17
2019-03-13T05:28:13.902Z,6.16
2019-03-13T05:30:49.105Z,6.17
2019-03-13T05:33:24.966Z,6.19
2019-03-13T05:35:59.862Z,6.20
2019-03-13T05:38:34.801Z,6.21
2019-03-13T05:41:09.718Z,6.25
2019-03-13T05:43:45.553Z,6.27
2019-03-13T05:46:20.438Z,6.29
2019-03-13T05:48:55.282Z,6.29
2019-03-13T05:51:31.241Z,6.30
2019-03-13T05:54:06.087Z,6.31
2019-03-13T05:56:41.091Z,6.28
2019-03-13T05:59:16.127Z,6.28
2019-03-13T06:01:51.016Z,6.31
2019-03-13T06:04:25.940Z,6.31
2019-03-13T06:07:00.855Z,6.27
2019-03-13T06:09:35.707Z,6.32
2019-03-13T06:12:10.844Z,6.35
2019-03-13T06:14:45.794Z,6.38
2019-03-13T06:17:20.870Z,6.46
2019-03-13T06:19:55.757Z,6.44
2019-03-13T06:22:30.620Z,6.50
2019-03-13T06:25:05.552Z,6.47
2019-03-13T06:27:40.429Z,6.50
2019-03-13T06:30:15.578Z,6.49
2019-03-13T06:32:51.341Z,6.51
2019-03-13T06:35:26.271Z,6.52
2019-03-13T06:38:01.312Z,6.50
2019-03-13T06:40:36.181Z,6.49
2019-03-13T06:43:11.044Z,6.47
2019-03-13T06:45:46.916Z,6.50
2019-03-13T06:48:21.769Z,6.50
2019-03-13T06:50:56.667Z,6.50
2019-03-13T06:53:31.575Z,6.57
2019-03-13T06:56:06.825Z,6.59
2019-03-13T06:58:48.525Z,6.57
2019-03-13T07:01:42.520Z,6.56
2019-03-13T07:04:40.267Z,6.54
2019-03-13T07:07:26.998Z,6.62
2019-03-13T07:10:16.704Z,6.66
2019-03-13T07:13:09.392Z,6.67
2019-03-13T07:16:00.280Z,6.75
2019-03-13T07:18:58.011Z,6.77
2019-03-13T07:21:46.323Z,6.83
2019-03-13T07:24:37.279Z,6.86
2019-03-13T07:27:31.214Z,6.78
2019-03-13T07:30:46.680Z,6.74
2019-03-13T07:33:46.325Z,6.83
2019-03-13T07:36:40.224Z,6.85
2019-03-13T07:39:30.791Z,6.79
2019-03-13T07:42:22.095Z,6.87
2019-03-13T07:45:09.773Z,6.88
2019-03-13T07:48:03.903Z,6.86
2019-03-13T07:50:56.189Z,6.82
2019-03-13T07:53:47.919Z,6.82
2019-03-13T07:56:44.761Z,6.89
2019-03-13T07:59:39.483Z,6.92
2019-03-13T08:02:25.725Z,6.99
2019-03-13T08:05:19.527Z,6.98
2019-03-13T08:08:16.431Z,6.99
2019-03-13T08:11:08.691Z,7.02
2019-03-13T08:14:08.341Z,7.01
2019-03-13T08:17:09.064Z,7.03
2019-03-13T08:20:08.765Z,7.08
2019-03-13T08:23:05.937Z,7.13
2019-03-13T08:25:47.077Z,7.10
2019-03-13T08:28:31.986Z,7.18
2019-03-13T08:31:23.379Z,7.20
2019-03-13T08:34:09.997Z,7.10
2019-03-13T08:36:51.109Z,7.01
2019-03-13T08:39:38.512Z,7.10
2019-03-13T08:42:31.298Z,7.07
2019-03-13T08:45:30.241Z,7.13
2019-03-13T08:48:24.028Z,7.10
2019-03-13T08:51:16.607Z,7.20
2019-03-13T08:54:00.673Z,7.26
2019-03-13T08:56:42.331Z,7.41
2019-03-13T08:59:24.413Z,7.41
2019-03-13T09:02:16.617Z,7.51
2019-03-13T09:05:13.305Z,7.46
2019-03-13T09:08:05.771Z,7.40
2019-03-13T09:11:06.378Z,7.45
2019-03-13T09:14:26.739Z,7.43
2019-03-13T09:17:19.153Z,7.30
2019-03-13T09:20:12.999Z,7.00
2019-03-13T09:23:01.029Z,6.83
2019-03-13T09:25:54.629Z,6.81
2019-03-13T09:28:54.683Z,6.93
2019-03-13T09:31:48.497Z,7.07
2019-03-13T09:34:42.596Z,7.25
2019-03-13T09:37:42.541Z,7.48
2019-03-13T09:40:51.195Z,7.68
2019-03-13T09:44:19.450Z,7.55
2019-03-13T09:47:28.151Z,7.16
2019-03-13T09:50:36.601Z,6.94
2019-03-13T09:53:39.180Z,6.91
2019-03-13T09:56:35.939Z,6.89
2019-03-13T09:59:18.560Z,6.91
2019-03-13T10:02:00.357Z,6.96
2019-03-13T10:04:48.067Z,6.92
2019-03-13T10:07:31.325Z,7.02
2019-03-13T10:10:25.228Z,7.12
2019-03-13T10:13:10.806Z,7.15
2019-03-13T10:15:53.208Z,7.05
2019-03-13T10:18:56.352Z,6.97
2019-03-13T10:21:56.422Z,6.87
2019-03-13T10:24:41.089Z,6.94
2019-03-13T10:27:40.927Z,7.08
2019-03-13T10:30:23.111Z,7.25
2019-03-13T10:33:11.736Z,7.29
2019-03-13T10:36:05.519Z,7.29
2019-03-13T10:39:03.346Z,7.44
2019-03-13T10:42:11.133Z,7.51
2019-03-13T10:45:04.929Z,7.59
2019-03-13T10:47:47.500Z,7.68
2019-03-13T10:50:56.580Z,7.79
2019-03-13T10:53:58.131Z,7.74
2019-03-13T10:56:54.772Z,7.69
2019-03-13T10:59:51.707Z,7.64
2019-03-13T11:02:48.672Z,7.72
2019-03-13T11:05:37.263Z,7.69
2019-03-13T11:08:34.175Z,7.65
2019-03-13T11:11:15.234Z,7.72
2019-03-13T11:13:57.596Z,7.77
2019-03-13T11:16:54.651Z,7.73
2019-03-13T11:19:36.807Z,7.60
2019-03-13T11:22:45.955Z,7.59
2019-03-13T11:25:40.072Z,7.49
2019-03-13T11:28:36.539Z,7.47
2019-03-13T11:31:31.452Z,7.57
2019-03-13T11:34:26.504Z,7.64
2019-03-13T11:37:19.185Z,7.63
2019-03-13T11:40:11.484Z,7.83
2019-03-13T11:43:15.300Z,7.70
2019-03-13T11:46:18.431Z,7.50
2019-03-13T11:49:21.575Z,7.35
2019-03-13T11:52:27.648Z,7.28
2019-03-13T11:55:24.572Z,7.22
2019-03-13T11:58:10.861Z,7.37
2019-03-13T12:01:07.081Z,7.43
2019-03-13T12:04:01.940Z,7.22
2019-03-13T12:06:51.904Z,7.11
2019-03-13T12:09:45.836Z,7.00
2019-03-13T12:12:48.003Z,7.10
2019-03-13T12:15:50.638Z,7.12
2019-03-13T12:18:32.819Z,7.23
2019-03-13T12:21:31.503Z,7.25
2019-03-13T12:24:21.589Z,7.28
2019-03-13T12:27:18.148Z,7.18
2019-03-13T12:30:19.416Z,7.08
2019-03-13T12:33:15.815Z,7.16
2019-03-13T12:36:24.801Z,7.25
2019-03-13T12:39:13.889Z,7.19
2019-03-13T12:42:19.389Z,7.18
2019-03-13T12:45:06.139Z,7.20
2019-03-13T12:48:15.812Z,7.20
2019-03-13T12:50:54.869Z,7.24
2019-03-13T12:53:51.642Z,7.37
2019-03-13T12:56:45.393Z,7.37
2019-03-13T12:59:51.279Z,7.39
2019-03-13T13:02:37.444Z,7.46
2019-03-13T13:05:40.198Z,7.45
2019-03-13T13:08:33.822Z,7.40
2019-03-13T13:11:26.319Z,7.42
2019-03-13T13:14:14.680Z,7.27
2019-03-13T13:17:06.806Z,7.28
2019-03-13T13:19:41.694Z,7.34
2019-03-13T13:22:16.556Z,7.34
2019-03-13T13:24:51.466Z,7.45
2019-03-13T13:27:26.361Z,7.60
2019-03-13T13:30:01.367Z,7.60
2019-03-13T13:32:36.892Z,7.62
2019-03-13T13:35:12.551Z,7.47
2019-03-13T13:37:48.296Z,7.42
2019-03-13T13:40:23.199Z,7.32
2019-03-13T13:42:58.086Z,7.12
2019-03-13T13:46:00.194Z,7.00
2019-03-13T13:48:35.102Z,6.86
2019-03-13T13:51:10.010Z,6.68
2019-03-13T13:53:44.816Z,6.60
2019-03-13T13:56:19.692Z,6.52
2019-03-13T13:58:54.540Z,6.49
2019-03-13T14:01:29.424Z,6.42
2019-03-13T14:04:04.309Z,6.39
2019-03-13T14:06:39.199Z,6.46
2019-03-13T14:09:14.118Z,6.53
2019-03-13T14:11:49.076Z,7.06
2019-03-13T14:14:23.965Z,8.16
2019-03-13T14:16:58.910Z,8.36
2019-03-13T14:19:33.862Z,8.13
2019-03-13T14:22:08.759Z,8.09
2019-03-13T14:24:43.643Z,8.09
2019-03-13T14:27:18.539Z,7.94
2019-03-13T14:29:53.404Z,8.29
2019-03-13T14:32:28.312Z,8.68
2019-03-13T14:35:03.168Z,8.41
2019-03-13T14:37:38.118Z,8.30
2019-03-13T14:40:13.122Z,7.93
2019-03-13T14:42:48.875Z,8.01
2019-03-13T14:45:23.908Z,8.16
2019-03-13T14:47:59.244Z,8.26
2019-03-13T14:50:36.283Z,7.99
2019-03-13T14:53:10.667Z,7.72
2019-03-13T14:55:45.424Z,7.60
2019-03-13T14:58:20.300Z,7.65
2019-03-13T15:00:55.675Z,7.50
2019-03-13T15:04:06.080Z,7.47
2019-03-13T15:06:41.375Z,7.26
2019-03-13T15:09:16.362Z,7.17
2019-03-13T15:11:51.316Z,7.09
2019-03-13T15:14:26.287Z,6.99
2019-03-13T15:17:02.390Z,6.99
2019-03-13T15:20:14.934Z,6.94
2019-03-13T15:22:49.896Z,6.97
2019-03-13T15:25:24.875Z,6.99
2019-03-13T15:27:59.876Z,7.04
2019-03-13T15:30:34.873Z,7.07
2019-03-13T15:33:09.770Z,7.21
2019-03-13T15:35:44.674Z,7.47
2019-03-13T15:38:20.141Z,7.62
2019-03-13T15:40:57.831Z,7.72
2019-03-13T15:43:32.279Z,7.60
2019-03-13T15:46:07.706Z,7.40
2019-03-13T15:48:43.118Z,7.28
2019-03-13T15:51:18.361Z,7.35
2019-03-13T15:53:53.624Z,7.39
2019-03-13T15:56:28.663Z,7.25
2019-03-13T15:59:04.072Z,7.31
2019-03-13T16:01:39.499Z,7.34
2019-03-13T16:04:16.951Z,7.28
2019-03-13T16:06:52.052Z,7.34
2019-03-13T16:09:27.285Z,7.36
2019-03-13T16:12:02.384Z,7.33
2019-03-13T16:14:37.679Z,7.36
2019-03-13T16:17:13.152Z,7.35
2019-03-13T16:19:49.327Z,7.35
2019-03-13T16:22:27.218Z,7.40
2019-03-13T16:25:02.500Z,7.44
2019-03-13T16:27:37.644Z,7.39
2019-03-13T16:30:19.466Z,7.40
2019-03-13T16:32:55.330Z,7.30
2019-03-13T16:35:30.465Z,7.24
2019-03-13T16:38:05.646Z,7.17
2019-03-13T16:40:41.247Z,7.04
2019-03-13T16:43:16.329Z,6.93
2019-03-13T16:45:52.388Z,6.84
2019-03-13T16:48:33.438Z,6.76
2019-03-13T16:51:09.293Z,6.62
2019-03-13T16:54:12.324Z,6.52
2019-03-13T16:56:47.563Z,6.41
2019-03-13T16:59:23.493Z,6.36
2019-03-13T17:01:58.695Z,6.35
2019-03-13T17:04:33.950Z,6.37
2019-03-13T17:07:08.920Z,6.38
2019-03-13T17:09:54.026Z,6.41
2019-03-13T17:12:28.998Z,6.42
2019-03-13T17:15:05.087Z,6.39
2019-03-13T17:17:41.202Z,6.42
2019-03-13T17:20:22.281Z,6.40
2019-03-13T17:22:58.147Z,6.41
2019-03-13T17:25:33.388Z,6.43
2019-03-13T17:28:08.394Z,6.44
2019-03-13T17:30:44.428Z,6.44
2019-03-13T17:33:23.519Z,6.42
2019-03-13T17:35:58.461Z,6.44
2019-03-13T17:38:33.579Z,6.45
2019-03-13T17:41:08.566Z,6.48
2019-03-13T17:43:43.592Z,6.48
2019-03-13T17:46:19.096Z,6.51
2019-03-13T17:48:54.048Z,6.57
2019-03-13T17:51:29.042Z,6.61
2019-03-13T17:54:09.289Z,6.69
2019-03-13T17:56:44.501Z,6.70
2019-03-13T17:59:20.237Z,6.72
2019-03-13T18:01:56.442Z,6.81
2019-03-13T18:04:32.330Z,6.85
2019-03-13T18:07:07.364Z,6.85
2019-03-13T18:09:42.409Z,6.89
2019-03-13T18:12:20.565Z,6.91
2019-03-13T18:14:55.591Z,6.90
2019-03-13T18:17:30.491Z,6.94
2019-03-13T18:20:07.411Z,6.94
2019-03-13T18:22:42.307Z,6.95
2019-03-13T18:25:18.761Z,6.95
2019-03-13T18:27:54.552Z,6.91
2019-03-13T18:30:30.566Z,6.84
2019-03-13T18:33:06.830Z,6.86
2019-03-13T18:35:41.867Z,6.83
2019-03-13T18:38:16.834Z,6.83
2019-03-13T18:40:51.923Z,6.82
2019-03-13T18:43:26.870Z,6.84
2019-03-13T18:46:07.694Z,6.83
2019-03-13T18:48:42.832Z,6.85
2019-03-13T18:51:17.800Z,6.87
2019-03-13T18:53:52.654Z,6.87
2019-03-13T18:56:27.618Z,6.86
2019-03-13T18:59:02.477Z,6.86
2019-03-13T19:01:37.441Z,6.82
2019-03-13T19:04:12.534Z,6.86
2019-03-13T19:06:47.431Z,6.87
2019-03-13T19:09:22.404Z,6.85
2019-03-13T19:11:57.375Z,6.88
2019-03-13T19:14:32.267Z,6.93
2019-03-13T19:17:07.279Z,6.93
2019-03-13T19:19:42.106Z,6.94
2019-03-13T19:22:17.003Z,6.93
2019-03-13T19:24:51.893Z,6.97
2019-03-13T19:27:26.891Z,6.99
2019-03-13T19:30:02.771Z,6.99
2019-03-13T19:32:37.761Z,7.02
2019-03-13T19:35:14.031Z,7.01
2019-03-13T19:37:50.457Z,6.95
2019-03-13T19:40:26.258Z,6.97
2019-03-13T19:43:01.999Z,6.96
2019-03-13T19:45:40.313Z,6.98
2019-03-13T19:48:15.456Z,6.96
2019-03-13T19:50:50.383Z,6.92
2019-03-13T19:53:25.265Z,6.97
2019-03-13T19:56:00.303Z,6.96
2019-03-13T19:58:36.422Z,6.98
2019-03-13T20:01:11.369Z,6.96
2019-03-13T20:03:55.096Z,7.00
2019-03-13T20:06:22.842Z,7.01
2019-03-13T20:08:57.743Z,7.06
2019-03-13T20:11:32.658Z,7.08
2019-03-13T20:14:08.544Z,7.07
2019-03-13T20:16:46.650Z,7.01
2019-03-13T20:19:21.147Z,7.02
2019-03-13T20:21:56.107Z,6.98
2019-03-13T20:24:31.015Z,6.91
2019-03-13T20:27:06.334Z,6.90
2019-03-13T20:29:41.378Z,6.92
2019-03-13T20:32:16.547Z,6.94
2019-03-13T20:34:51.626Z,6.94
2019-03-13T20:37:26.663Z,6.96
2019-03-13T20:40:01.787Z,6.95
2019-03-13T20:42:38.327Z,6.95
2019-03-13T20:45:15.780Z,6.93
2019-03-13T20:47:50.893Z,6.93
2019-03-13T20:50:36.576Z,6.95
2019-03-13T20:53:03.176Z,6.96
2019-03-13T20:55:38.039Z,6.97
2019-03-13T20:58:12.960Z,6.97
2019-03-13T21:00:47.923Z,6.94
2019-03-13T21:03:25.503Z,7.01
2019-03-13T21:06:01.588Z,7.03
2019-03-13T21:08:37.043Z,7.02
2019-03-13T21:11:12.029Z,7.04
2019-03-13T21:13:47.157Z,6.96
2019-03-13T21:16:22.167Z,6.95
2019-03-13T21:18:57.193Z,6.93
2019-03-13T21:21:32.576Z,6.95
2019-03-13T21:24:10.713Z,6.94
2019-03-13T21:26:45.615Z,6.92
2019-03-13T21:29:20.523Z,6.91
2019-03-13T21:31:55.365Z,6.91
2019-03-13T21:34:30.357Z,6.92
2019-03-13T21:37:05.138Z,6.97
2019-03-13T21:39:40.085Z,6.90
2019-03-13T21:42:16.088Z,6.96
2019-03-13T21:44:50.971Z,7.00
2019-03-13T21:47:25.867Z,7.04
2019-03-13T21:50:00.733Z,6.96
2019-03-13T21:52:35.777Z,6.98
2019-03-13T21:55:12.288Z,7.01
2019-03-13T21:57:47.351Z,7.03
2019-03-13T22:00:24.188Z,6.94
2019-03-13T22:02:59.355Z,6.87
2019-03-13T22:05:34.287Z,6.78
2019-03-13T22:08:09.275Z,6.75
2019-03-13T22:10:44.467Z,6.75
2019-03-13T22:13:19.722Z,6.80
2019-03-13T22:15:58.594Z,6.83
2019-03-13T22:18:32.156Z,6.79
2019-03-13T22:21:11.239Z,6.78
2019-03-13T22:23:46.989Z,6.78
2019-03-13T22:26:21.869Z,6.87
2019-03-13T22:28:56.777Z,6.81
2019-03-13T22:31:31.851Z,6.71
2019-03-13T22:34:06.807Z,6.67
2019-03-13T22:36:41.755Z,6.65
2019-03-13T22:39:17.095Z,6.61
2019-03-13T22:41:51.977Z,6.49
2019-03-13T22:44:26.881Z,6.43
2019-03-13T22:47:01.785Z,6.43
2019-03-13T22:49:36.591Z,6.52
2019-03-13T22:52:11.436Z,6.59
2019-03-13T22:54:46.386Z,6.61
2019-03-13T22:57:21.468Z,6.67
2019-03-13T22:59:56.361Z,6.77
2019-03-13T23:02:31.230Z,6.78
2019-03-13T23:05:06.907Z,6.83
2019-03-13T23:07:44.890Z,6.75
2019-03-13T23:10:33.264Z,6.69
2019-03-13T23:13:08.146Z,6.61
2019-03-13T23:15:43.055Z,6.55
2019-03-13T23:18:18.667Z,6.60
2019-03-13T23:20:53.663Z,6.61
2019-03-13T23:23:28.579Z,6.61
2019-03-13T23:26:03.506Z,6.63
2019-03-13T23:28:38.522Z,6.63
2019-03-13T23:31:13.462Z,6.64
2019-03-13T23:33:48.354Z,6.59
2019-03-13T23:36:28.706Z,6.61
2019-03-13T23:39:05.418Z,6.58
2019-03-13T23:41:40.995Z,6.61
2019-03-13T23:44:15.895Z,6.66
2019-03-13T23:46:50.766Z,6.58
2019-03-13T23:49:25.936Z,6.54
2019-03-13T23:52:02.842Z,6.58
2019-03-13T23:54:37.624Z,6.61
2019-03-13T23:57:12.668Z,6.61
2019-03-13T23:59:48.178Z,6.68
